createdAt,value
2022-10-24T00:00:15.508Z,12.02
2022-10-24T00:05:09.095Z,7.63
2022-10-24T00:07:35.585Z,6.82
2022-10-24T00:10:02.076Z,8.70
2022-10-24T00:12:28.636Z,6.43
2022-10-24T00:14:55.170Z,7.97
2022-10-24T00:17:21.757Z,7.83
2022-10-24T00:19:48.438Z,5.60
2022-10-24T00:22:14.970Z,8.73
2022-10-24T00:24:41.459Z,7.47
2022-10-24T00:27:09.597Z,5.70
2022-10-24T00:29:36.327Z,6.53
2022-10-24T00:32:02.983Z,6.20
2022-10-24T00:34:29.733Z,7.07
2022-10-24T00:36:56.409Z,7.00
2022-10-24T00:39:22.984Z,8.00
2022-10-24T00:41:49.493Z,4.17
2022-10-24T00:44:17.604Z,8.67
2022-10-24T00:46:51.879Z,9.52
2022-10-24T00:49:24.280Z,12.15
2022-10-24T00:51:57.067Z,9.85
2022-10-24T00:54:23.756Z,11.13
2022-10-24T00:57:11.682Z,11.15
2022-10-24T00:59:41.931Z,13.05
2022-10-24T01:02:08.865Z,13.18
2022-10-24T01:04:35.399Z,12.13
2022-10-24T01:07:24.126Z,8.43
2022-10-24T01:10:02.896Z,5.30
2022-10-24T01:12:44.423Z,5.57
2022-10-24T01:15:43.383Z,6.60
2022-10-24T01:18:17.461Z,4.85
2022-10-24T01:21:11.417Z,5.00
2022-10-24T01:23:40.948Z,7.43
2022-10-24T01:26:55.583Z,4.50
2022-10-24T01:29:27.827Z,6.50
2022-10-24T01:32:02.880Z,8.57
2022-10-24T01:34:41.812Z,5.72
2022-10-24T01:37:21.859Z,6.28
2022-10-24T01:39:53.309Z,5.47
2022-10-24T01:42:24.047Z,5.78
2022-10-24T01:44:56.327Z,5.00
2022-10-24T01:47:30.747Z,5.07
2022-10-24T01:50:02.817Z,6.97
2022-10-24T01:52:32.991Z,6.85
2022-10-24T01:55:00.290Z,5.68
2022-10-24T01:57:28.764Z,3.97
2022-10-24T01:59:55.352Z,7.13
2022-10-24T02:02:28.167Z,3.93
2022-10-24T02:05:06.820Z,6.68
2022-10-24T02:07:37.030Z,5.43
2022-10-24T02:10:15.076Z,6.05
2022-10-24T02:12:47.204Z,3.60
2022-10-24T02:15:26.417Z,6.57
2022-10-24T02:17:54.672Z,4.57
2022-10-24T02:20:33.431Z,4.65
2022-10-24T02:23:18.578Z,6.25
2022-10-24T02:25:48.797Z,8.05
2022-10-24T02:28:24.268Z,4.20
2022-10-24T02:30:57.628Z,4.60
2022-10-24T02:33:26.523Z,4.40
2022-10-24T02:35:54.682Z,5.28
2022-10-24T02:38:37.140Z,5.55
2022-10-24T02:41:09.077Z,4.85
2022-10-24T02:43:36.171Z,7.18
2022-10-24T02:46:04.084Z,5.40
2022-10-24T02:48:34.911Z,7.75
2022-10-24T02:51:02.146Z,7.47
2022-10-24T02:53:29.135Z,7.28
2022-10-24T02:55:56.231Z,6.38
2022-10-24T02:58:22.923Z,5.05
2022-10-24T03:00:49.584Z,6.35
2022-10-24T03:03:16.200Z,7.53
2022-10-24T03:05:42.850Z,5.20
2022-10-24T03:08:09.403Z,5.40
2022-10-24T03:10:35.913Z,4.50
2022-10-24T03:13:03.666Z,6.80
2022-10-24T03:15:30.911Z,5.13
2022-10-24T03:17:57.424Z,8.07
2022-10-24T03:20:24.684Z,6.00
2022-10-24T03:22:51.712Z,8.25
2022-10-24T03:25:18.315Z,7.97
2022-10-24T03:27:45.095Z,9.63
2022-10-24T03:30:12.329Z,4.95
2022-10-24T03:32:38.844Z,6.97
2022-10-24T03:35:08.020Z,7.70
2022-10-24T03:37:35.671Z,8.68
2022-10-24T03:40:02.191Z,6.37
2022-10-24T03:42:28.729Z,10.83
2022-10-24T03:44:55.471Z,14.03
2022-10-24T03:47:22.106Z,10.52
2022-10-24T03:49:48.675Z,7.30
2022-10-24T03:52:15.205Z,10.17
2022-10-24T03:54:41.740Z,8.63
2022-10-24T03:57:09.981Z,9.47
2022-10-24T03:59:37.570Z,11.75
2022-10-24T04:04:30.920Z,10.52
2022-10-24T04:06:58.564Z,7.70
2022-10-24T04:09:25.153Z,9.73
2022-10-24T04:11:53.545Z,8.47
2022-10-24T04:14:22.880Z,6.13
2022-10-24T04:16:49.840Z,7.05
2022-10-24T04:19:19.533Z,8.63
2022-10-24T04:21:48.095Z,10.30
2022-10-24T04:24:15.336Z,7.90
2022-10-24T04:26:42.321Z,6.97
2022-10-24T04:29:08.868Z,6.03
2022-10-24T04:31:35.401Z,4.57
2022-10-24T04:34:02.057Z,6.03
2022-10-24T04:36:28.636Z,4.88
2022-10-24T04:38:55.558Z,9.40
2022-10-24T04:41:22.341Z,6.65
2022-10-24T04:43:48.874Z,10.68
2022-10-24T04:46:15.470Z,9.30
2022-10-24T04:48:42.016Z,10.98
2022-10-24T04:51:08.589Z,12.03
2022-10-24T04:53:35.116Z,11.77
2022-10-24T04:56:01.827Z,11.00
2022-10-24T04:58:28.399Z,10.88
2022-10-24T05:00:55.146Z,8.40
2022-10-24T05:03:23.282Z,9.35
2022-10-24T05:05:50.166Z,6.50
2022-10-24T05:08:17.836Z,7.45
2022-10-24T05:10:44.915Z,9.50
2022-10-24T05:13:11.510Z,8.05
2022-10-24T05:15:38.375Z,8.00
2022-10-24T05:18:04.977Z,9.05
2022-10-24T05:20:31.638Z,9.93
2022-10-24T05:22:58.277Z,5.55
2022-10-24T05:25:24.811Z,4.90
2022-10-24T05:27:51.392Z,6.50
2022-10-24T05:30:18.122Z,6.35
2022-10-24T05:32:44.893Z,6.45
2022-10-24T05:35:11.845Z,7.78
2022-10-24T05:37:39.112Z,7.28
2022-10-24T05:42:34.295Z,6.18
2022-10-24T05:45:00.808Z,6.53
2022-10-24T05:47:29.203Z,10.67
2022-10-24T05:49:55.954Z,21.20
2022-10-24T05:52:25.342Z,19.50
2022-10-24T05:54:55.823Z,34.25
2022-10-24T05:57:33.468Z,22.88
2022-10-24T06:00:00.727Z,28.35
2022-10-24T06:02:27.585Z,21.25
2022-10-24T06:04:56.197Z,19.75
2022-10-24T06:07:22.931Z,27.33
2022-10-24T06:09:49.440Z,18.65
2022-10-24T06:12:16.182Z,8.97
2022-10-24T06:14:43.000Z,9.18
2022-10-24T06:17:09.728Z,10.73
2022-10-24T06:19:37.059Z,10.00
2022-10-24T06:24:31.076Z,8.80
2022-10-24T06:26:57.587Z,9.75
2022-10-24T06:29:24.156Z,7.60
2022-10-24T06:31:50.727Z,12.83
2022-10-24T06:34:17.282Z,16.75
2022-10-24T06:36:43.864Z,13.77
2022-10-24T06:39:10.386Z,14.53
2022-10-24T06:41:36.955Z,15.77
2022-10-24T06:44:05.786Z,15.07
2022-10-24T06:46:35.546Z,17.77
2022-10-24T06:49:02.098Z,15.23
2022-10-24T06:51:28.635Z,11.97
2022-10-24T06:53:55.209Z,14.43
2022-10-24T06:56:21.774Z,16.17
2022-10-24T06:58:48.307Z,10.43
2022-10-24T07:01:20.541Z,12.83
2022-10-24T07:03:47.593Z,10.18
2022-10-24T07:08:57.515Z,11.55
2022-10-24T07:11:24.453Z,10.75
2022-10-24T07:13:53.321Z,14.90
2022-10-24T07:16:21.916Z,9.65
2022-10-24T07:18:48.748Z,10.67
2022-10-24T07:21:19.049Z,12.82
2022-10-24T07:23:45.624Z,13.05
2022-10-24T07:26:17.810Z,11.97
2022-10-24T07:28:46.679Z,11.02
2022-10-24T07:31:17.475Z,17.75
2022-10-24T07:33:44.177Z,11.80
2022-10-24T07:36:10.737Z,12.38
2022-10-24T07:38:37.328Z,11.37
2022-10-24T07:41:07.155Z,13.30
2022-10-24T07:43:33.684Z,11.00
2022-10-24T07:48:27.898Z,13.07
2022-10-24T07:50:54.508Z,12.27
2022-10-24T07:53:21.039Z,11.77
2022-10-24T07:55:47.726Z,10.57
2022-10-24T07:58:14.333Z,9.65
2022-10-24T08:00:44.984Z,16.60
2022-10-24T08:03:12.210Z,14.85
2022-10-24T08:05:40.350Z,14.23
2022-10-24T08:10:53.962Z,12.93
2022-10-24T08:13:20.534Z,12.98
2022-10-24T08:15:47.126Z,13.52
2022-10-24T08:18:13.826Z,13.75
2022-10-24T08:20:40.406Z,17.70
2022-10-24T08:23:06.973Z,15.63
2022-10-24T08:25:33.600Z,10.82
2022-10-24T08:28:01.779Z,11.55
2022-10-24T08:30:30.584Z,12.48
2022-10-24T08:32:57.091Z,9.25
2022-10-24T08:35:23.692Z,11.68
2022-10-24T08:37:50.293Z,13.30
2022-10-24T08:40:19.413Z,10.70
2022-10-24T08:42:48.181Z,9.90
2022-10-24T08:45:34.260Z,10.07
2022-10-24T08:48:27.300Z,10.25
2022-10-24T08:51:02.536Z,11.52
2022-10-24T08:53:30.181Z,8.88
2022-10-24T08:56:00.091Z,9.18
2022-10-24T08:58:28.761Z,13.40
2022-10-24T09:00:59.298Z,11.05
2022-10-24T09:03:54.944Z,8.27
2022-10-24T09:06:24.290Z,12.52
2022-10-24T09:08:58.141Z,11.73
2022-10-24T09:11:28.633Z,7.28
2022-10-24T09:13:55.587Z,10.63
2022-10-24T09:16:24.355Z,12.10
2022-10-24T09:18:54.486Z,8.82
2022-10-24T09:21:22.804Z,11.65
2022-10-24T09:23:51.027Z,8.48
2022-10-24T09:26:26.443Z,8.63
2022-10-24T09:28:55.321Z,8.43
2022-10-24T09:31:24.753Z,8.23
2022-10-24T09:33:52.425Z,11.73
2022-10-24T09:36:22.313Z,6.82
2022-10-24T09:38:49.272Z,11.88
2022-10-24T09:41:26.392Z,9.82
2022-10-24T09:43:58.353Z,10.65
2022-10-24T09:46:45.837Z,8.43
2022-10-24T09:49:12.298Z,6.53
2022-10-24T09:51:42.496Z,8.17
2022-10-24T09:54:17.923Z,7.07
2022-10-24T09:56:53.584Z,7.07
2022-10-24T09:59:34.640Z,7.10
2022-10-24T10:02:23.166Z,8.10
2022-10-24T10:05:04.844Z,8.95
2022-10-24T10:07:39.926Z,8.02
2022-10-24T10:10:22.304Z,8.00
2022-10-24T10:13:01.736Z,10.13
2022-10-24T10:15:39.169Z,10.35
2022-10-24T10:18:42.444Z,9.32
2022-10-24T10:21:16.399Z,8.15
2022-10-24T10:23:45.676Z,7.35
2022-10-24T10:26:27.830Z,12.93
2022-10-24T10:29:04.730Z,7.90
2022-10-24T10:31:45.078Z,11.15
2022-10-24T10:34:28.742Z,6.88
2022-10-24T10:37:23.019Z,5.82
2022-10-24T10:39:49.464Z,7.70
2022-10-24T10:42:51.555Z,7.43
2022-10-24T10:45:41.045Z,7.07
2022-10-24T10:48:32.999Z,9.75
2022-10-24T10:51:17.421Z,7.78
2022-10-24T10:54:04.773Z,6.78
2022-10-24T10:57:05.454Z,8.18
2022-10-24T10:59:48.260Z,11.57
2022-10-24T11:02:33.337Z,7.75
2022-10-24T11:05:37.056Z,8.63
2022-10-24T11:08:28.263Z,10.18
2022-10-24T11:10:59.993Z,10.98
2022-10-24T11:13:42.176Z,10.57
2022-10-24T11:16:14.489Z,8.88
2022-10-24T11:18:46.513Z,13.38
2022-10-24T11:21:16.136Z,7.03
2022-10-24T11:24:09.837Z,8.23
2022-10-24T11:26:56.085Z,10.80
2022-10-24T11:29:50.712Z,7.20
2022-10-24T11:32:32.729Z,7.50
2022-10-24T11:35:19.893Z,13.75
2022-10-24T11:37:52.809Z,10.27
2022-10-24T11:40:25.134Z,9.27
2022-10-24T11:43:13.591Z,8.38
2022-10-24T11:45:53.580Z,8.80
2022-10-24T11:48:25.886Z,10.02
2022-10-24T11:51:13.068Z,13.60
2022-10-24T11:53:52.323Z,14.18
2022-10-24T11:56:48.154Z,12.45
2022-10-24T11:59:24.383Z,10.77
2022-10-24T12:02:15.905Z,8.73
2022-10-24T12:05:09.357Z,9.63
2022-10-24T12:08:11.321Z,8.93
2022-10-24T12:10:45.630Z,13.23
2022-10-24T12:13:31.653Z,12.85
2022-10-24T12:16:16.190Z,11.00
2022-10-24T12:18:57.667Z,15.60
2022-10-24T12:21:27.819Z,14.77
2022-10-24T12:24:01.498Z,17.98
2022-10-24T12:26:33.456Z,20.30
2022-10-24T12:29:02.585Z,18.92
2022-10-24T12:31:31.713Z,13.80
2022-10-24T12:34:16.680Z,19.27
2022-10-24T12:37:04.470Z,16.05
2022-10-24T12:39:44.407Z,15.25
2022-10-24T12:42:24.108Z,21.77
2022-10-24T12:47:33.025Z,21.83
2022-10-24T12:50:22.155Z,21.55
2022-10-24T12:52:48.887Z,21.85
2022-10-24T12:55:39.329Z,20.58
2022-10-24T12:58:24.755Z,20.83
2022-10-24T13:01:00.802Z,18.52
2022-10-24T13:03:53.330Z,16.52
2022-10-24T13:06:23.599Z,22.40
2022-10-24T13:09:04.134Z,27.65
2022-10-24T13:11:54.245Z,20.73
2022-10-24T13:14:46.500Z,23.75
2022-10-24T13:17:35.802Z,17.83
2022-10-24T13:20:04.068Z,21.92
2022-10-24T13:22:35.808Z,23.95
2022-10-24T13:25:19.201Z,16.05
2022-10-24T13:27:45.890Z,21.38
2022-10-24T13:30:25.557Z,20.13
2022-10-24T13:33:30.107Z,15.77
2022-10-24T13:36:07.261Z,22.50
2022-10-24T13:38:41.773Z,22.33
2022-10-24T13:41:12.383Z,23.10
2022-10-24T13:43:46.587Z,21.95
2022-10-24T13:46:31.852Z,21.92
2022-10-24T13:49:00.537Z,16.08
2022-10-24T13:51:44.456Z,24.20
2022-10-24T13:54:20.034Z,19.52
2022-10-24T13:56:48.261Z,21.48
2022-10-24T13:59:53.320Z,23.48
2022-10-24T14:02:23.291Z,17.25
2022-10-24T14:04:54.848Z,17.23
2022-10-24T14:07:28.931Z,24.33
2022-10-24T14:10:00.451Z,16.63
2022-10-24T14:12:30.286Z,20.30
2022-10-24T14:14:58.908Z,14.07
2022-10-24T14:17:35.774Z,19.60
2022-10-24T14:22:45.436Z,15.20
2022-10-24T14:25:41.708Z,17.40
2022-10-24T14:28:16.415Z,22.05
2022-10-24T14:31:06.244Z,18.15
2022-10-24T14:33:43.448Z,21.60
2022-10-24T14:36:10.569Z,21.08
2022-10-24T14:41:09.665Z,20.23
2022-10-24T14:43:41.803Z,20.52
2022-10-24T14:46:09.067Z,23.33
2022-10-24T14:48:36.395Z,16.52
2022-10-24T14:51:24.801Z,15.00
2022-10-24T14:53:51.870Z,27.15
2022-10-24T14:56:36.999Z,23.83
2022-10-24T14:59:18.207Z,22.20
2022-10-24T15:02:01.529Z,17.63
2022-10-24T15:04:38.005Z,16.13
2022-10-24T15:07:36.291Z,12.20
2022-10-24T15:10:42.351Z,16.65
2022-10-24T15:13:18.257Z,19.80
2022-10-24T15:15:57.055Z,18.77
2022-10-24T15:18:41.258Z,18.00
2022-10-24T15:21:15.104Z,18.65
2022-10-24T15:24:01.280Z,15.18
2022-10-24T15:26:40.722Z,17.02
2022-10-24T15:29:12.915Z,19.17
2022-10-24T15:31:42.493Z,19.25
2022-10-24T15:34:13.135Z,14.43
2022-10-24T15:36:41.585Z,17.40
2022-10-24T15:39:28.354Z,20.17
2022-10-24T15:41:55.285Z,16.98
2022-10-24T15:44:25.676Z,22.05
2022-10-24T15:46:52.784Z,14.57
2022-10-24T15:49:19.689Z,21.23
2022-10-24T15:51:50.260Z,19.55
2022-10-24T15:54:20.988Z,18.38
2022-10-24T15:56:48.020Z,18.63
2022-10-24T15:59:14.668Z,14.38
2022-10-24T16:01:57.303Z,17.73
2022-10-24T16:04:24.205Z,20.75
2022-10-24T16:06:51.319Z,15.05
2022-10-24T16:09:21.563Z,18.70
2022-10-24T16:11:48.343Z,16.10
2022-10-24T16:14:16.881Z,22.95
2022-10-24T16:16:43.448Z,17.95
2022-10-24T16:19:10.665Z,17.00
2022-10-24T16:21:40.184Z,20.92
2022-10-24T16:24:08.041Z,18.55
2022-10-24T16:26:34.768Z,18.55
2022-10-24T16:29:01.285Z,15.73
2022-10-24T16:31:27.856Z,21.57
2022-10-24T16:33:54.378Z,18.80
2022-10-24T16:36:24.547Z,15.63
2022-10-24T16:38:51.759Z,14.88
2022-10-24T16:41:21.968Z,17.77
2022-10-24T16:43:49.968Z,16.67
2022-10-24T16:46:19.365Z,19.92
2022-10-24T16:48:46.796Z,20.60
2022-10-24T16:53:42.024Z,16.17
2022-10-24T16:56:11.238Z,17.67
2022-10-24T16:58:38.734Z,16.85
2022-10-24T17:01:08.831Z,21.15
2022-10-24T17:03:36.426Z,21.05
2022-10-24T17:06:04.077Z,19.15
2022-10-24T17:08:31.117Z,18.00
2022-10-24T17:10:58.170Z,17.20
2022-10-24T17:13:25.228Z,21.02
2022-10-24T17:15:52.091Z,17.73
2022-10-24T17:18:20.531Z,17.10
2022-10-24T17:20:47.980Z,16.38
2022-10-24T17:25:47.617Z,11.85
2022-10-24T17:28:15.839Z,15.57
2022-10-24T17:30:42.843Z,16.35
2022-10-24T17:33:13.418Z,20.13
2022-10-24T17:35:45.872Z,19.10
2022-10-24T17:38:24.097Z,17.70
2022-10-24T17:40:50.899Z,22.67
2022-10-24T17:43:23.326Z,21.23
2022-10-24T17:45:50.461Z,20.13
2022-10-24T17:48:17.730Z,21.40
2022-10-24T17:50:44.673Z,17.80
2022-10-24T17:53:12.917Z,20.95
2022-10-24T17:55:46.168Z,18.60
2022-10-24T17:58:13.944Z,18.90
2022-10-24T18:03:08.684Z,19.05
2022-10-24T18:05:38.041Z,12.45
2022-10-24T18:08:07.474Z,16.95
2022-10-24T18:10:35.977Z,22.27
2022-10-24T18:13:02.491Z,19.05
2022-10-24T18:15:29.084Z,16.07
2022-10-24T18:17:55.620Z,19.57
2022-10-24T18:20:22.229Z,17.67
2022-10-24T18:22:49.239Z,19.08
2022-10-24T18:25:20.262Z,21.63
2022-10-24T18:27:49.957Z,16.20
2022-10-24T18:30:16.931Z,15.68
2022-10-24T18:32:44.568Z,15.05
2022-10-24T18:35:11.804Z,19.98
2022-10-24T18:37:39.080Z,16.70
2022-10-24T18:40:06.836Z,18.67
2022-10-24T18:43:00.985Z,14.85
2022-10-24T18:45:28.246Z,13.48
2022-10-24T18:47:55.162Z,17.88
2022-10-24T18:50:23.918Z,21.50
2022-10-24T18:53:08.387Z,16.45
2022-10-24T18:55:35.581Z,20.63
2022-10-24T18:58:02.668Z,13.43
2022-10-24T19:00:31.779Z,14.75
2022-10-24T19:03:21.792Z,32.08
2022-10-24T19:05:54.848Z,16.70
2022-10-24T19:08:23.871Z,19.75
2022-10-24T19:10:53.339Z,23.08
2022-10-24T19:13:20.073Z,24.50
2022-10-24T19:15:57.947Z,24.58
2022-10-24T19:18:25.767Z,21.75
2022-10-24T19:20:52.327Z,18.70
2022-10-24T19:23:18.968Z,16.33
2022-10-24T19:25:45.779Z,28.23
2022-10-24T19:28:16.661Z,23.65
2022-10-24T19:30:44.806Z,23.98
2022-10-24T19:33:12.927Z,18.40
2022-10-24T19:35:45.213Z,18.15
2022-10-24T19:38:11.740Z,17.85
2022-10-24T19:40:45.254Z,21.50
2022-10-24T19:43:11.873Z,14.15
2022-10-24T19:45:45.586Z,19.10
2022-10-24T19:48:17.634Z,17.73
2022-10-24T19:50:44.204Z,21.88
2022-10-24T19:53:13.179Z,17.80
2022-10-24T19:55:40.653Z,17.20
2022-10-24T20:00:42.149Z,18.02
2022-10-24T20:03:08.681Z,14.23
2022-10-24T20:05:36.230Z,13.77
2022-10-24T20:08:02.989Z,20.98
2022-10-24T20:10:29.582Z,23.00
2022-10-24T20:12:56.171Z,23.73
2022-10-24T20:15:22.683Z,19.77
2022-10-24T20:17:49.188Z,18.05
2022-10-24T20:20:15.768Z,18.87
2022-10-24T20:22:42.281Z,16.23
2022-10-24T20:25:08.861Z,17.13
2022-10-24T20:27:38.771Z,18.60
2022-10-24T20:30:05.788Z,16.58
2022-10-24T20:32:32.298Z,19.08
2022-10-24T20:34:58.798Z,14.65
2022-10-24T20:37:25.318Z,15.83
2022-10-24T20:39:51.824Z,21.43
2022-10-24T20:42:20.218Z,14.27
2022-10-24T20:44:46.741Z,15.63
2022-10-24T20:47:13.243Z,17.87
2022-10-24T20:49:39.777Z,16.17
2022-10-24T20:52:06.362Z,17.63
2022-10-24T20:54:33.069Z,17.45
2022-10-24T20:57:00.021Z,22.65
2022-10-24T20:59:26.539Z,18.73
2022-10-24T21:01:53.238Z,21.37
2022-10-24T21:04:20.951Z,13.93
2022-10-24T21:06:47.709Z,19.63
2022-10-24T21:09:15.129Z,17.03
2022-10-24T21:14:11.714Z,14.85
2022-10-24T21:16:38.239Z,20.63
2022-10-24T21:19:04.892Z,15.33
2022-10-24T21:21:31.644Z,30.25
2022-10-24T21:24:03.958Z,18.95
2022-10-24T21:26:39.549Z,20.13
2022-10-24T21:29:31.774Z,19.17
2022-10-24T21:34:20.851Z,16.30
2022-10-24T21:39:17.399Z,15.85
2022-10-24T21:41:44.563Z,14.63
2022-10-24T21:44:11.723Z,16.13
2022-10-24T21:46:38.293Z,17.65
2022-10-24T21:49:04.853Z,16.97
2022-10-24T21:51:37.031Z,12.47
2022-10-24T21:54:06.679Z,17.30
2022-10-24T21:56:36.766Z,14.10
2022-10-24T21:59:05.707Z,16.67
2022-10-24T22:01:35.580Z,16.20
2022-10-24T22:04:02.449Z,15.77
2022-10-24T22:06:30.398Z,18.48
2022-10-24T22:08:57.975Z,13.52
2022-10-24T22:11:27.350Z,13.40
2022-10-24T22:13:53.999Z,14.80
2022-10-24T22:16:22.779Z,17.08
2022-10-24T22:18:50.324Z,13.43
2022-10-24T22:21:27.009Z,14.52
2022-10-24T22:23:58.262Z,21.83
2022-10-24T22:26:25.449Z,17.58
2022-10-24T22:28:52.448Z,13.65
2022-10-24T22:31:19.211Z,19.10
2022-10-24T22:33:45.780Z,16.08
2022-10-24T22:36:36.546Z,11.07
2022-10-24T22:39:04.384Z,16.73
2022-10-24T22:41:31.373Z,18.98
2022-10-24T22:43:58.205Z,11.52
2022-10-24T22:46:36.522Z,16.35
2022-10-24T22:49:25.690Z,14.60
2022-10-24T22:51:52.467Z,14.10
2022-10-24T22:54:24.690Z,13.88
2022-10-24T22:56:51.842Z,14.35
2022-10-24T22:59:18.735Z,16.58
2022-10-24T23:02:09.929Z,17.27
2022-10-24T23:04:41.152Z,16.05
2022-10-24T23:07:13.586Z,12.90
2022-10-24T23:09:40.483Z,15.98
2022-10-24T23:12:15.089Z,16.95
2022-10-24T23:14:42.327Z,14.75
2022-10-24T23:17:11.483Z,13.50
2022-10-24T23:19:43.329Z,16.48
2022-10-24T23:22:31.098Z,12.82
2022-10-24T23:25:00.343Z,15.00
2022-10-24T23:27:39.286Z,12.57
2022-10-24T23:30:17.857Z,16.50
2022-10-24T23:32:45.338Z,14.20
2022-10-24T23:35:13.407Z,17.20
2022-10-24T23:37:43.403Z,16.65
2022-10-24T23:40:22.159Z,11.98
2022-10-24T23:42:49.979Z,19.33
2022-10-24T23:45:28.665Z,12.25
2022-10-24T23:48:08.627Z,17.75
2022-10-24T23:50:48.816Z,16.73
2022-10-24T23:53:18.183Z,16.98
2022-10-24T23:55:45.240Z,15.80
2022-10-24T23:58:12.072Z,16.38
